Time;durP1;ratioP1;P1;durP2;ratioP2;P2;SDS_P1;SDS_P2;PMS_P1;PMS_P2;Temp;Humidity;BMP_temperature;BMP_pressure;BME280_temperature;BME280_humidity;BME280_pressure;Samples;Min_cycle;Max_cycle;Signal;HPM_P1;HPM_P2
2022/11/22 00:02:13;;;;;;;68.80;12.50;;;;;;;5.58;59.49;98880.72;4395638;32;20094;-95
2022/11/22 00:04:38;;;;;;;97.70;14.38;;;;;;;5.50;59.48;98877.47;4398428;32;20163;-96
2022/11/22 00:07:04;;;;;;;64.53;13.20;;;;;;;5.60;59.48;98873.78;4396928;32;20201;-96
2022/11/22 00:09:29;;;;;;;95.30;12.37;;;;;;;5.55;59.49;98880.78;4381546;32;20101;-96
2022/11/22 00:11:55;;;;;;;68.65;12.20;;;;;;;5.51;59.48;98872.28;4390408;32;20960;-95
2022/11/22 00:14:20;;;;;;;97.78;15.52;;;;;;;5.67;59.49;98862.38;4393153;32;20554;-95
2022/11/22 00:16:46;;;;;;;75.50;13.07;;;;;;;5.50;59.48;98873.16;4382104;32;20992;-96
2022/11/22 00:19:11;;;;;;;44.67;12.13;;;;;;;5.47;59.48;98867.25;4369892;32;20148;-95
2022/11/22 00:21:36;;;;;;;50.50;13.25;;;;;;;5.67;59.49;98872.72;4396890;32;20137;-96
2022/11/22 00:24:02;;;;;;;64.03;13.60;;;;;;;5.72;59.49;98873.47;4384655;32;20125;-94
2022/11/22 00:26:27;;;;;;;69.97;13.93;;;;;;;5.80;59.50;98875.84;4382198;32;20110;-95
2022/11/22 00:28:53;;;;;;;74.03;13.65;;;;;;;5.95;59.51;98870.28;4386879;32;20169;-95
2022/11/22 00:31:18;;;;;;;90.10;14.80;;;;;;;5.89;59.50;98859.22;4390969;32;20126;-95
2022/11/22 00:33:44;;;;;;;55.58;14.63;;;;;;;5.91;59.51;98860.91;4386340;32;20384;-95
2022/11/22 00:36:09;;;;;;;64.28;11.90;;;;;;;5.81;59.50;98859.44;4379270;32;20160;-96
2022/11/22 00:38:34;;;;;;;57.30;11.68;;;;;;;5.79;59.50;98851.75;4383413;32;20121;-95
2022/11/22 00:41:00;;;;;;;47.67;11.02;;;;;;;5.73;59.49;98848.50;4385075;32;20193;-96
2022/11/22 00:43:25;;;;;;;36.42;11.18;;;;;;;5.70;59.50;98848.56;4385591;32;26205;-96
2022/11/22 00:45:50;;;;;;;53.25;12.95;;;;;;;5.74;59.49;98842.44;4398673;32;20164;-95
2022/11/22 00:48:16;;;;;;;49.05;11.45;;;;;;;5.71;59.50;98845.94;4391919;32;25104;-96
2022/11/22 00:50:41;;;;;;;67.50;12.60;;;;;;;5.64;59.49;98848.72;4386412;32;20098;-96
2022/11/22 00:53:07;;;;;;;91.50;15.00;;;;;;;5.60;59.48;98850.53;4386376;32;20121;-96
2022/11/22 00:55:32;;;;;;;54.17;12.13;;;;;;;5.51;59.48;98853.38;4383430;32;20145;-94
2022/11/22 00:57:58;;;;;;;53.55;11.88;;;;;;;5.52;59.48;98853.31;4375379;32;20097;-96
2022/11/22 01:00:24;;;;;;;62.33;11.88;;;;;;;5.48;59.48;98856.03;4393957;32;20119;-96
2022/11/22 01:02:49;;;;;;;39.17;11.73;;;;;;;5.52;59.48;98860.22;4399171;32;20112;-96
2022/11/22 01:05:16;;;;;;;49.63;11.70;;;;;;;5.57;59.49;98857.50;4374856;32;20121;-96
2022/11/22 01:07:43;;;;;;;58.03;11.20;;;;;;;5.55;59.49;98852.41;4398646;32;20114;-96
2022/11/22 01:10:08;;;;;;;47.90;11.05;;;;;;;5.64;59.49;98852.16;4373844;32;20112;-96
2022/11/22 01:12:34;;;;;;;75.87;11.00;;;;;;;5.42;59.48;98863.91;4374255;32;20086;-94
2022/11/22 01:14:59;;;;;;;58.40;11.70;;;;;;;5.55;59.49;98855.81;4376988;32;20161;-96
2022/11/22 01:17:25;;;;;;;58.45;10.40;;;;;;;5.58;59.49;98852.31;4376452;32;20097;-96
2022/11/22 01:19:51;;;;;;;56.92;9.70;;;;;;;5.48;59.48;98846.56;4386107;32;20359;-95
2022/11/22 01:22:16;;;;;;;85.00;13.35;;;;;;;5.47;59.48;98842.28;4386390;32;20094;-95
2022/11/22 01:24:41;;;;;;;50.22;11.40;;;;;;;5.41;59.48;98837.25;4399449;32;20474;-96
2022/11/22 01:38:17;;;;;;;68.60;10.25;;;;;;;5.18;59.47;98840.41;4388804;32;20175;-96
2022/11/22 01:40:43;;;;;;;71.75;10.90;;;;;;;5.28;59.47;98840.19;4379800;32;20492;-96
2022/11/22 01:43:18;;;;;;;43.95;10.02;;;;;;;5.25;59.47;98843.72;4366309;32;20116;-96
2022/11/22 01:45:49;;;;;;;46.67;10.02;;;;;;;5.20;59.47;98842.94;4373507;32;20095;-95
2022/11/22 01:48:34;;;;;;;31.42;8.88;;;;;;;5.09;59.46;98840.66;4373697;32;20721;-96
2022/11/22 01:51:15;;;;;;;47.45;10.68;;;;;;;4.86;59.44;98838.62;4370433;32;20075;-95
2022/11/22 01:53:40;;;;;;;43.42;10.00;;;;;;;5.15;59.46;98835.34;4370670;32;20090;-96
2022/11/22 01:56:09;;;;;;;52.75;9.77;;;;;;;5.06;59.46;98835.56;4372695;32;20376;-96
2022/11/22 01:58:34;;;;;;;54.53;10.43;;;;;;;5.13;59.46;98837.09;4373261;32;20106;-96
2022/11/22 02:14:45;;;;;;;34.05;9.85;;;;;;;5.26;59.47;98826.50;5149923;27;20049;-96
2022/11/22 02:31:54;;;;;;;48.15;11.12;;;;;;;5.29;59.47;98810.94;5270753;27;20081;31
2022/11/22 02:34:19;;;;;;;47.20;10.48;;;;;;;5.23;59.46;98806.78;4365877;32;20100;-93
2022/11/22 02:36:47;;;;;;;86.95;12.23;;;;;;;5.31;59.47;98806.56;4344322;32;20418;-93
2022/11/22 02:39:14;;;;;;;96.03;12.45;;;;;;;5.38;59.47;98808.94;4367239;32;20149;-94
2022/11/22 02:41:40;;;;;;;40.65;11.90;;;;;;;5.29;59.47;98806.63;4367455;32;20098;-94
2022/11/22 02:44:06;;;;;;;37.95;10.80;;;;;;;5.38;59.47;98798.63;4352309;32;20513;-93
2022/11/22 02:46:31;;;;;;;54.30;11.60;;;;;;;5.48;59.48;98802.69;4360739;32;20106;-93
2022/11/22 02:48:57;;;;;;;50.90;10.90;;;;;;;5.53;59.49;98797.37;4367088;32;20173;-93
2022/11/22 02:51:25;;;;;;;60.75;11.70;;;;;;;5.51;59.48;98806.91;4365679;32;22649;-96
2022/11/22 02:53:52;;;;;;;52.80;12.80;;;;;;;5.59;59.49;98799.78;4385085;32;20175;-95
2022/11/22 02:56:17;;;;;;;86.28;12.35;;;;;;;5.59;59.49;98802.38;4384584;32;20160;-95
2022/11/22 02:58:43;;;;;;;57.45;13.10;;;;;;;5.47;59.48;98800.97;4383513;32;20507;-96
2022/11/22 03:01:09;;;;;;;56.55;11.55;;;;;;;5.38;59.47;98801.22;4379019;32;258480;-96
2022/11/22 03:03:35;;;;;;;65.35;12.23;;;;;;;5.50;59.48;98790.56;4362800;32;20083;-96
2022/11/22 03:06:01;;;;;;;80.75;12.32;;;;;;;5.52;59.48;98796.53;4383247;32;20135;-96
2022/11/22 03:08:27;;;;;;;78.47;13.57;;;;;;;5.53;59.49;98802.56;4371009;32;20127;-95
2022/11/22 03:10:52;;;;;;;54.35;13.38;;;;;;;5.63;59.49;98795.38;4366912;32;20659;-96
2022/11/22 03:13:18;;;;;;;64.20;13.05;;;;;;;5.57;59.49;98796.41;4382737;32;20415;-96
2022/11/22 03:15:46;;;;;;;62.13;12.02;;;;;;;5.65;59.49;98791.88;4368025;32;20106;-96
2022/11/22 03:18:12;;;;;;;53.38;13.43;;;;;;;5.75;59.49;98795.06;4348785;32;20138;-96
2022/11/22 03:20:38;;;;;;;100.03;14.02;;;;;;;5.84;59.51;98785.31;4375739;32;20106;-96
2022/11/22 03:23:03;;;;;;;68.62;14.10;;;;;;;5.67;59.49;98791.81;4390090;32;20169;-96
2022/11/22 03:25:28;;;;;;;36.08;12.18;;;;;;;5.66;59.49;98796.16;4355792;32;20128;-96
2022/11/22 03:27:54;;;;;;;70.78;14.50;;;;;;;5.70;59.50;98797.78;4364988;32;20160;-92
2022/11/22 03:30:19;;;;;;;33.58;13.32;;;;;;;5.77;59.50;98796.72;4367527;32;20125;-92
2022/11/22 03:32:45;;;;;;;35.10;12.40;;;;;;;5.79;59.50;98794.94;4365294;32;20102;-92
2022/11/22 03:35:10;;;;;;;34.15;13.05;;;;;;;5.63;59.49;98795.38;4370616;32;20131;-92
2022/11/22 03:37:36;;;;;;;38.30;13.23;;;;;;;5.87;59.50;98794.72;4379377;32;32970;-93
2022/11/22 03:40:01;;;;;;;48.35;13.93;;;;;;;5.83;59.51;98799.13;4367768;32;20524;-92
2022/11/22 03:42:26;;;;;;;31.37;13.52;;;;;;;5.93;59.51;98789.44;4363015;32;32132;-94
2022/11/22 03:44:52;;;;;;;39.80;13.57;;;;;;;5.98;59.50;98784.13;4386101;32;20141;-92
2022/11/22 03:47:17;;;;;;;35.45;13.50;;;;;;;5.86;59.50;98768.03;4379568;32;27583;-93
2022/11/22 03:49:42;;;;;;;33.17;12.73;;;;;;;5.82;59.50;98778.50;4355037;32;26446;-94
2022/11/22 03:52:08;;;;;;;46.92;15.18;;;;;;;5.75;59.49;98775.25;4365369;32;20118;-93
2022/11/22 03:54:33;;;;;;;35.60;14.10;;;;;;;5.86;59.50;98770.62;4374308;32;29038;-92
2022/11/22 03:56:59;;;;;;;37.67;13.25;;;;;;;6.04;59.51;98773.59;4352880;32;27414;-93
2022/11/22 03:59:24;;;;;;;47.83;14.57;;;;;;;5.86;59.50;98775.78;4364202;32;20115;-92
2022/11/22 04:01:50;;;;;;;38.13;13.70;;;;;;;5.90;59.51;98779.16;4358429;32;29388;-92
2022/11/22 04:04:15;;;;;;;32.92;13.55;;;;;;;5.94;59.51;98777.34;4352328;32;33728;-91
2022/11/22 04:06:40;;;;;;;35.55;13.25;;;;;;;6.09;59.52;98769.13;4356152;32;20508;-91
2022/11/22 04:09:06;;;;;;;35.83;13.88;;;;;;;6.10;59.52;98773.41;4362190;32;29671;-92
2022/11/22 04:11:31;;;;;;;32.13;14.05;;;;;;;6.18;59.52;98776.63;4378120;32;28326;-91
2022/11/22 04:16:40;;;;;;;26.92;12.27;;;;;;;5.96;59.51;98775.56;4383454;32;20125;-91
2022/11/22 04:19:06;;;;;;;33.25;14.60;;;;;;;5.87;59.50;98774.03;4358840;32;20444;-92
2022/11/22 04:21:34;;;;;;;30.23;13.35;;;;;;;6.03;59.51;98767.59;4364942;32;20078;-92
2022/11/22 04:26:44;;;;;;;30.85;12.40;;;;;;;6.00;59.51;98772.00;4380147;32;20130;-93
2022/11/22 04:29:09;;;;;;;33.88;13.38;;;;;;;5.94;59.51;98767.88;4361759;32;20158;-93
2022/11/22 04:34:19;;;;;;;29.77;13.20;;;;;;;5.82;59.50;98758.69;4384811;32;20153;-92
2022/11/22 04:36:45;;;;;;;31.62;13.48;;;;;;;5.61;59.49;98785.09;4364254;32;34955;-93
2022/11/22 04:39:10;;;;;;;36.50;13.85;;;;;;;5.62;59.49;98768.72;4381619;32;20153;-92
2022/11/22 04:41:36;;;;;;;32.00;14.18;;;;;;;5.51;59.48;98763.03;4359370;32;20110;-91
2022/11/22 04:46:45;;;;;;;31.90;14.52;;;;;;;5.61;59.48;98766.19;4357924;32;20157;-92
2022/11/22 04:49:10;;;;;;;37.13;14.73;;;;;;;5.74;59.49;98750.31;4353153;32;20163;-93
2022/11/22 04:54:20;;;;;;;32.13;14.50;;;;;;;5.67;59.49;98755.69;4378882;32;20085;-90
2022/11/22 04:56:45;;;;;;;30.70;13.05;;;;;;;5.36;59.47;98766.00;4361784;32;20138;-90
2022/11/22 04:59:10;;;;;;;30.92;14.87;;;;;;;5.46;59.48;98764.91;4391614;32;20118;-89
2022/11/22 05:01:36;;;;;;;28.50;12.43;;;;;;;5.35;59.47;98774.66;4374445;32;20141;-91
2022/11/22 05:04:01;;;;;;;31.60;13.40;;;;;;;5.40;59.48;98776.22;4394342;32;24316;-92
2022/11/22 05:06:27;;;;;;;31.35;12.90;;;;;;;5.30;59.47;98787.66;4363433;32;20103;-90
2022/11/22 05:08:52;;;;;;;33.45;14.27;;;;;;;5.32;59.48;98767.00;4362513;32;26600;-92
2022/11/22 05:11:17;;;;;;;36.60;13.00;;;;;;;5.12;59.46;98776.09;4376926;32;20150;-90
2022/11/22 05:13:43;;;;;;;36.60;14.63;;;;;;;4.95;59.46;98785.97;4358740;32;20522;-91
2022/11/22 05:16:10;;;;;;;27.52;12.93;;;;;;;5.13;59.46;98795.84;4378025;32;20385;-89
2022/11/22 05:18:36;;;;;;;28.92;13.20;;;;;;;5.15;59.46;98757.09;4352129;32;20122;-91
2022/11/22 05:21:05;;;;;;;26.83;12.32;;;;;;;4.92;59.45;98775.72;4368116;32;20444;-95
2022/11/22 05:26:15;;;;;;;24.83;12.20;;;;;;;4.80;59.44;98792.38;4371476;32;20160;-89
2022/11/22 05:28:40;;;;;;;27.62;12.55;;;;;;;4.83;59.44;98774.25;4366310;32;20114;-93
2022/11/22 05:31:10;;;;;;;28.65;13.55;;;;;;;4.68;59.44;98792.62;4351199;32;20232;-95
2022/11/22 05:33:36;;;;;;;27.80;14.07;;;;;;;4.81;59.45;98783.75;4363277;32;20121;-94
2022/11/22 05:36:02;;;;;;;30.02;13.32;;;;;;;4.69;59.44;98798.66;4355155;32;20102;-92
2022/11/22 05:38:27;;;;;;;29.92;14.02;;;;;;;4.72;59.43;98793.41;4381643;32;20128;-96
2022/11/22 05:40:53;;;;;;;30.17;14.75;;;;;;;4.76;59.43;98775.28;4351144;32;26704;-94
2022/11/22 05:43:18;;;;;;;30.08;13.90;;;;;;;4.79;59.45;98762.31;4353979;32;20169;-95
2022/11/22 05:45:43;;;;;;;29.63;13.85;;;;;;;4.77;59.44;98758.94;4356554;32;20189;-95
2022/11/22 05:48:09;;;;;;;28.87;14.75;;;;;;;4.58;59.43;98773.97;4368935;32;20122;-96
2022/11/22 05:50:34;;;;;;;27.33;13.77;;;;;;;4.68;59.44;98773.75;4356256;32;24332;-96
2022/11/22 05:53:01;;;;;;;27.75;13.25;;;;;;;4.66;59.44;98793.56;4353795;32;20063;-96
2022/11/22 05:55:28;;;;;;;25.35;12.85;;;;;;;4.66;59.44;98796.16;4378115;32;20176;-94
2022/11/22 05:57:59;;;;;;;24.65;12.57;;;;;;;4.46;59.42;98801.75;4370040;32;20110;-96
2022/11/22 06:00:24;;;;;;;26.23;12.93;;;;;;;4.44;59.42;98801.78;4370897;32;20066;-96
2022/11/22 06:02:49;;;;;;;26.17;13.00;;;;;;;4.43;59.43;98812.13;4352251;32;20115;-94
2022/11/22 06:05:15;;;;;;;28.12;13.18;;;;;;;4.60;59.43;98816.03;4353759;32;20106;-95
2022/11/22 06:07:40;;;;;;;27.98;12.82;;;;;;;4.53;59.43;98800.75;4363854;32;20114;-93
2022/11/22 06:10:06;;;;;;;26.42;12.68;;;;;;;4.50;59.42;98803.41;4357675;32;20121;-95
2022/11/22 06:12:31;;;;;;;26.00;12.20;;;;;;;4.43;59.43;98809.56;4354371;32;20091;-94
2022/11/22 06:14:57;;;;;;;24.48;11.75;;;;;;;4.34;59.41;98807.19;4367448;32;24445;-95
2022/11/22 06:17:22;;;;;;;25.60;11.60;;;;;;;4.20;59.41;98816.03;4366378;32;27695;-93
2022/11/22 06:19:48;;;;;;;22.75;12.23;;;;;;;4.22;59.41;98808.28;4344178;32;20139;-93
2022/11/22 06:22:13;;;;;;;25.75;12.40;;;;;;;4.18;59.41;98812.66;4359163;32;20114;-92
2022/11/22 06:24:39;;;;;;;27.92;12.65;;;;;;;4.08;59.41;98811.16;4363953;32;20253;-94
2022/11/22 06:27:04;;;;;;;24.70;11.63;;;;;;;4.10;59.40;98803.41;4361111;32;20152;-93
2022/11/22 06:29:29;;;;;;;25.50;11.88;;;;;;;4.23;59.42;98799.69;4382855;32;20094;-93
2022/11/22 06:31:55;;;;;;;28.67;12.48;;;;;;;4.18;59.41;98791.22;4368043;32;24574;-94
2022/11/22 06:34:20;;;;;;;25.33;11.70;;;;;;;4.11;59.40;98799.97;4368085;32;20109;-93
2022/11/22 06:36:46;;;;;;;23.33;10.80;;;;;;;4.08;59.40;98795.72;4358019;32;20117;-93
2022/11/22 06:39:11;;;;;;;26.60;11.57;;;;;;;4.14;59.41;98800.72;4368036;32;20164;-92
2022/11/22 06:41:37;;;;;;;24.37;12.50;;;;;;;4.22;59.41;98810.88;4384177;32;20106;-93
2022/11/22 06:44:04;;;;;;;26.10;13.25;;;;;;;4.01;59.40;98812.16;4393013;32;20158;-93
2022/11/22 06:46:29;;;;;;;27.75;13.18;;;;;;;4.09;59.40;98807.72;4393405;32;20173;-91
2022/11/22 06:48:55;;;;;;;26.05;13.00;;;;;;;4.27;59.42;98811.63;4366173;32;20129;-93
2022/11/22 06:51:23;;;;;;;25.50;12.77;;;;;;;4.24;59.41;98811.66;4359373;32;20409;-93
2022/11/22 06:53:48;;;;;;;28.75;11.50;;;;;;;4.40;59.42;98814.78;4355451;32;20094;-93
2022/11/22 06:56:18;;;;;;;26.55;12.25;;;;;;;4.50;59.42;98805.97;4367758;32;20098;-92
2022/11/22 06:58:44;;;;;;;24.65;11.70;;;;;;;4.37;59.42;98805.37;4365255;32;20082;-93
2022/11/22 07:01:11;;;;;;;25.98;13.00;;;;;;;4.42;59.42;98794.97;4355149;32;20117;-93
2022/11/22 07:03:37;;;;;;;22.25;11.98;;;;;;;4.47;59.42;98799.13;4380045;32;20142;-93
2022/11/22 07:06:03;;;;;;;27.77;11.80;;;;;;;4.70;59.44;98795.19;4353909;32;20106;-92
2022/11/22 07:08:29;;;;;;;28.20;13.45;;;;;;;4.71;59.43;98802.03;4354669;32;20124;-93
2022/11/22 07:10:54;;;;;;;25.70;12.88;;;;;;;4.81;59.45;98804.37;4366407;32;20111;-93
2022/11/22 07:13:20;;;;;;;23.17;11.57;;;;;;;5.02;59.46;98797.84;4391552;32;20122;-92
2022/11/22 07:15:58;;;;;;;23.33;11.25;;;;;;;4.82;59.45;98802.63;4365979;32;20114;-93
2022/11/22 07:18:24;;;;;;;23.42;11.77;;;;;;;4.77;59.44;98796.75;4369505;32;20121;-94
2022/11/22 07:20:49;;;;;;;23.35;11.32;;;;;;;4.81;59.45;98790.63;4366253;32;20102;-92
2022/11/22 07:23:17;;;;;;;23.38;11.45;;;;;;;4.88;59.45;98795.59;4390850;32;20122;-92
2022/11/22 07:25:46;;;;;;;25.55;11.18;;;;;;;5.03;59.46;98793.53;4366669;32;20836;-93
2022/11/22 07:28:14;;;;;;;20.45;10.77;;;;;;;4.98;59.46;98803.97;4365214;32;20128;-92
2022/11/22 07:30:40;;;;;;;25.70;12.13;;;;;;;4.99;59.45;98804.81;4347383;32;20103;-92
2022/11/22 07:33:05;;;;;;;31.33;13.68;;;;;;;5.01;59.45;98805.63;4363328;32;20150;-91
2022/11/22 07:35:31;;;;;;;25.83;13.02;;;;;;;5.02;59.46;98809.91;4353898;32;20110;-93
2022/11/22 07:37:57;;;;;;;30.88;13.18;;;;;;;4.78;59.44;98809.59;4366729;32;20154;-93
2022/11/22 07:40:22;;;;;;;27.42;13.10;;;;;;;5.07;59.46;98808.03;4365058;32;20448;-92
2022/11/22 07:42:47;;;;;;;26.10;11.75;;;;;;;5.17;59.47;98817.25;4358950;32;20221;-92
2022/11/22 07:45:13;;;;;;;23.73;12.10;;;;;;;5.14;59.46;98800.09;4392991;32;20184;-93
2022/11/22 07:47:38;;;;;;;31.12;11.90;;;;;;;5.21;59.46;98795.66;4375910;32;20095;-93
2022/11/22 07:50:04;;;;;;;22.17;11.10;;;;;;;5.30;59.47;98808.31;4399659;32;20091;-93
2022/11/22 07:52:30;;;;;;;23.95;10.93;;;;;;;5.37;59.47;98803.84;4377138;32;20795;-92
2022/11/22 07:54:55;;;;;;;24.90;11.55;;;;;;;5.28;59.47;98806.66;4391377;32;20124;-92
2022/11/22 07:57:20;;;;;;;25.92;10.90;;;;;;;5.18;59.46;98796.56;4347309;32;20159;-92
2022/11/22 07:59:46;;;;;;;28.27;11.90;;;;;;;5.31;59.48;98794.53;4367677;32;20118;-92
2022/11/22 08:02:11;;;;;;;22.27;10.18;;;;;;;5.21;59.46;98796.50;4357085;32;20137;-92
2022/11/22 08:04:37;;;;;;;23.67;11.02;;;;;;;5.33;59.48;98799.66;4364935;32;20129;-91
2022/11/22 08:07:02;;;;;;;20.05;10.40;;;;;;;5.38;59.47;98800.34;4346064;32;20462;-92
2022/11/22 08:09:28;;;;;;;24.33;10.82;;;;;;;5.39;59.48;98787.41;4373492;32;20083;-92
2022/11/22 08:11:53;;;;;;;24.42;12.00;;;;;;;5.49;59.48;98795.78;4371819;32;21879;-92
2022/11/22 08:14:19;;;;;;;20.27;10.63;;;;;;;5.50;59.48;98794.88;4367311;32;20105;-92
2022/11/22 08:16:44;;;;;;;29.42;11.18;;;;;;;5.46;59.49;98788.97;4364884;32;20630;-93
2022/11/22 08:19:14;;;;;;;25.05;11.95;;;;;;;5.43;59.48;98783.88;4367567;32;20482;-92
2022/11/22 08:21:40;;;;;;;21.77;10.70;;;;;;;5.38;59.47;98793.47;4367555;32;20702;-93
2022/11/22 08:24:05;;;;;;;22.08;11.40;;;;;;;5.49;59.48;98777.72;4354730;32;20096;-92
2022/11/22 08:26:31;;;;;;;24.45;9.85;;;;;;;5.52;59.48;98787.94;4367122;32;20162;-92
2022/11/22 08:28:57;;;;;;;21.85;10.95;;;;;;;5.52;59.48;98793.12;4367324;32;20586;-92
2022/11/22 08:31:22;;;;;;;23.25;10.27;;;;;;;5.17;59.47;98783.69;4389219;32;20114;-92
2022/11/22 08:33:51;;;;;;;28.65;11.48;;;;;;;5.23;59.46;98787.00;4355219;32;20147;-90
2022/11/22 08:36:16;;;;;;;27.02;9.98;;;;;;;5.35;59.48;98787.53;4367343;32;20152;-90
2022/11/22 08:38:41;;;;;;;28.92;12.23;;;;;;;5.28;59.47;98797.19;4350413;32;20552;-92
2022/11/22 08:41:07;;;;;;;23.62;11.30;;;;;;;5.26;59.47;98801.53;4358636;32;20411;-93
2022/11/22 08:43:32;;;;;;;28.77;11.40;;;;;;;5.29;59.47;98795.44;4366857;32;20139;-92
2022/11/22 08:45:58;;;;;;;25.73;11.65;;;;;;;5.35;59.47;98796.13;4356624;32;20431;-91
2022/11/22 08:48:24;;;;;;;22.30;10.90;;;;;;;5.34;59.47;98785.84;4367440;32;20455;-92
2022/11/22 08:50:54;;;;;;;21.85;9.65;;;;;;;5.40;59.48;98788.25;4376110;32;20122;-92
2022/11/22 08:53:20;;;;;;;24.98;11.38;;;;;;;5.39;59.49;98786.56;4380047;32;20118;-92
2022/11/22 08:55:45;;;;;;;26.42;11.35;;;;;;;5.48;59.49;98784.59;4379843;32;20431;-93
2022/11/22 08:58:11;;;;;;;22.50;10.45;;;;;;;5.68;59.50;98778.91;4367451;32;20103;-92
2022/11/22 09:00:36;;;;;;;29.63;11.95;;;;;;;5.51;59.48;98781.94;4354472;32;20372;-93
2022/11/22 09:03:02;;;;;;;23.70;10.52;;;;;;;5.68;59.49;98780.63;4364432;32;20122;-92
2022/11/22 09:05:27;;;;;;;27.10;11.25;;;;;;;5.56;59.49;98784.41;4355024;32;20090;-92
2022/11/22 09:07:53;;;;;;;21.25;10.13;;;;;;;5.80;59.50;98782.88;4379428;32;20124;-92
2022/11/22 09:10:18;;;;;;;24.85;10.82;;;;;;;5.82;59.50;98781.09;4366695;32;20153;-91
2022/11/22 09:12:44;;;;;;;23.10;9.70;;;;;;;5.89;59.51;98769.69;4356878;32;20193;-92
2022/11/22 09:15:09;;;;;;;23.95;10.25;;;;;;;5.91;59.51;98774.84;4354563;32;20087;-91
2022/11/22 09:17:35;;;;;;;20.60;10.93;;;;;;;5.84;59.51;98761.22;4378751;32;20198;-91
2022/11/22 09:20:00;;;;;;;22.48;10.52;;;;;;;5.78;59.50;98764.84;4354097;32;20173;-91
2022/11/22 09:22:26;;;;;;;23.30;10.65;;;;;;;5.87;59.50;98766.31;4366784;32;20160;-92
2022/11/22 09:24:51;;;;;;;26.85;10.60;;;;;;;5.91;59.51;98767.09;4367026;32;20696;-92
2022/11/22 09:27:17;;;;;;;27.25;11.82;;;;;;;5.83;59.51;98765.53;4366278;32;20142;-92
2022/11/22 09:29:42;;;;;;;28.25;11.95;;;;;;;5.89;59.50;98761.94;4366720;32;20134;-92
2022/11/22 09:32:09;;;;;;;25.80;13.20;;;;;;;6.04;59.51;98760.69;4367392;32;20171;-91
2022/11/22 09:34:34;;;;;;;103.00;67.45;;;;;;;5.94;59.51;98752.38;4377093;32;20090;-92
2022/11/22 09:37:00;;;;;;;30.62;13.82;;;;;;;6.11;59.51;98749.28;4358076;32;20086;-93
2022/11/22 09:39:25;;;;;;;25.98;10.63;;;;;;;6.07;59.52;98747.69;4367203;32;20443;-93
2022/11/22 09:42:16;;;;;;;24.00;10.77;;;;;;;5.96;59.51;98753.16;4379154;32;20461;-93
2022/11/22 09:45:06;;;;;;;24.67;10.93;;;;;;;6.45;59.54;98741.34;4389149;32;20896;-92
2022/11/22 09:48:10;;;;;;;26.62;11.82;;;;;;;6.36;59.54;98731.28;4375877;32;20157;-93
2022/11/22 09:51:05;;;;;;;25.73;11.12;;;;;;;6.53;59.54;98735.94;4375843;32;20456;-92
2022/11/22 09:53:47;;;;;;;30.30;12.18;;;;;;;6.63;59.54;98730.44;4377418;32;20106;-92
2022/11/22 09:56:16;;;;;;;28.12;13.07;;;;;;;6.59;59.55;98725.38;4357314;32;20112;-92
2022/11/22 09:58:51;;;;;;;28.70;12.98;;;;;;;6.75;59.55;98727.44;4388985;32;20086;-92
2022/11/22 10:01:26;;;;;;;30.75;11.32;;;;;;;7.02;59.57;98710.12;4351729;32;20585;-92
2022/11/22 10:04:05;;;;;;;30.02;11.73;;;;;;;6.98;59.57;98715.47;4374472;32;20144;-93
2022/11/22 10:06:33;;;;;;;30.75;13.20;;;;;;;7.19;59.58;98703.53;4378719;32;20098;-92
2022/11/22 10:09:33;;;;;;;26.50;11.10;;;;;;;7.26;59.58;98710.19;4391877;32;20121;-93
2022/11/22 10:12:02;;;;;;;26.12;11.73;;;;;;;7.57;59.60;98707.31;4355701;32;20104;-92
2022/11/22 10:14:45;;;;;;;26.95;11.80;;;;;;;7.69;59.61;98702.56;4373432;32;20166;-92
2022/11/22 10:17:25;;;;;;;29.45;11.93;;;;;;;7.61;59.59;98695.97;4384896;32;20062;-91
2022/11/22 10:19:55;;;;;;;32.42;11.93;;;;;;;7.44;59.59;98688.81;4389465;32;20685;-92
2022/11/22 10:22:20;;;;;;;28.98;12.90;;;;;;;7.52;59.59;98697.16;4368154;32;20137;-91
2022/11/22 10:24:46;;;;;;;32.13;11.23;;;;;;;7.36;59.58;98689.09;4396857;32;20111;-93
2022/11/22 10:27:14;;;;;;;27.95;12.63;;;;;;;7.42;59.59;98692.38;4394011;32;20117;-91
2022/11/22 10:29:45;;;;;;;26.67;12.68;;;;;;;7.43;59.59;98681.13;4368046;32;20101;-92
2022/11/22 10:32:22;;;;;;;34.75;12.27;;;;;;;7.23;59.58;98687.00;4390768;32;20075;-91
2022/11/22 10:35:24;;;;;;;30.65;12.75;;;;;;;7.40;59.59;98676.91;4379440;32;20127;-92
2022/11/22 10:38:09;;;;;;;25.65;11.15;;;;;;;7.30;59.58;98671.19;4341844;32;20059;-93
2022/11/22 10:40:53;;;;;;;28.62;12.73;;;;;;;7.26;59.58;98663.59;4344441;32;20109;-91
2022/11/22 10:43:25;;;;;;;36.58;12.63;;;;;;;7.30;59.58;98655.66;4378665;32;20103;-92
2022/11/22 10:45:56;;;;;;;28.60;11.95;;;;;;;7.26;59.58;98648.06;4377486;32;20113;-92
2022/11/22 10:48:51;;;;;;;26.00;11.98;;;;;;;7.24;59.58;98645.53;4391036;32;20173;-92
2022/11/22 10:51:32;;;;;;;28.05;12.65;;;;;;;7.38;59.58;98640.72;4340021;32;20506;-90
2022/11/22 10:54:18;;;;;;;27.20;12.15;;;;;;;7.37;59.59;98645.94;4389487;32;20738;-92
2022/11/22 10:56:49;;;;;;;32.67;12.88;;;;;;;7.40;59.59;98630.28;4371850;32;20148;-92
2022/11/22 10:59:36;;;;;;;29.48;12.90;;;;;;;7.29;59.58;98633.25;4378372;32;20125;-91
2022/11/22 11:02:32;;;;;;;32.28;13.62;;;;;;;7.36;59.59;98632.16;4378592;32;20059;-91
2022/11/22 11:04:57;;;;;;;30.90;14.52;;;;;;;7.27;59.58;98618.69;4371875;32;20074;-91
2022/11/22 11:07:23;;;;;;;31.95;13.43;;;;;;;7.44;59.60;98612.91;4365072;32;20189;-92
2022/11/22 11:09:51;;;;;;;29.12;13.18;;;;;;;7.57;59.60;98603.75;4377953;32;20102;-91
2022/11/22 11:12:21;;;;;;;27.85;12.20;;;;;;;7.74;59.61;98600.53;4353107;32;20095;-91
2022/11/22 11:14:48;;;;;;;30.10;13.48;;;;;;;7.89;59.62;98602.53;4378156;32;20106;-90
2022/11/22 11:17:22;;;;;;;30.12;13.93;;;;;;;7.93;59.62;98610.09;4390043;32;20118;-91
2022/11/22 11:19:47;;;;;;;31.65;13.23;;;;;;;7.72;59.61;98600.56;4390215;32;20489;-90
2022/11/22 11:22:18;;;;;;;33.28;13.48;;;;;;;7.90;59.61;98601.63;4352263;32;31600;-90
2022/11/22 11:24:43;;;;;;;28.42;12.02;;;;;;;8.09;59.63;98591.37;4365188;32;20129;-91
2022/11/22 11:27:10;;;;;;;24.60;12.37;;;;;;;8.21;59.63;98599.47;4365237;32;20134;-91
2022/11/22 11:29:42;;;;;;;31.62;14.13;;;;;;;8.28;59.64;98594.88;4351288;32;20220;-91
2022/11/22 11:32:11;;;;;;;29.50;12.95;;;;;;;8.27;59.64;98578.47;4375506;32;20090;-90
2022/11/22 11:34:38;;;;;;;27.27;13.43;;;;;;;8.40;59.65;98584.03;4359882;32;20486;-91
2022/11/22 11:37:04;;;;;;;27.35;12.68;;;;;;;8.24;59.64;98576.00;4354647;32;20188;-91
2022/11/22 11:39:33;;;;;;;28.80;12.30;;;;;;;8.40;59.64;98575.41;4381578;32;20102;-91
2022/11/22 11:41:59;;;;;;;27.73;13.15;;;;;;;8.35;59.63;98564.41;4388788;32;20149;-90
2022/11/22 11:44:33;;;;;;;25.45;12.52;;;;;;;8.38;59.65;98562.53;4365335;32;20570;-91
2022/11/22 11:46:59;;;;;;;26.65;12.90;;;;;;;8.60;59.65;98565.88;4362423;32;20158;-91
2022/11/22 11:49:28;;;;;;;27.55;14.00;;;;;;;8.56;59.65;98559.16;4360132;32;20094;-91
2022/11/22 11:51:58;;;;;;;27.67;13.35;;;;;;;8.50;59.65;98550.78;4350476;32;20142;-91
2022/11/22 11:54:42;;;;;;;27.58;13.25;;;;;;;8.70;59.66;98540.38;4362118;32;20111;-91
2022/11/22 11:57:13;;;;;;;28.77;12.75;;;;;;;8.73;59.66;98534.22;4362340;32;20453;-90
2022/11/22 11:59:38;;;;;;;28.83;12.30;;;;;;;8.75;59.67;98534.97;4364651;32;20094;-90
2022/11/22 12:02:19;;;;;;;28.30;12.80;;;;;;;8.66;59.67;98528.47;4381397;32;20377;-91
2022/11/22 12:04:52;;;;;;;22.25;12.23;;;;;;;8.84;59.67;98532.84;4379781;32;20117;-90
2022/11/22 12:07:19;;;;;;;22.92;12.20;;;;;;;8.92;59.67;98522.97;4376814;32;20153;-89
2022/11/22 12:09:46;;;;;;;24.98;13.18;;;;;;;8.74;59.66;98521.16;4366207;32;20086;-90
2022/11/22 12:12:37;;;;;;;26.10;12.57;;;;;;;8.73;59.65;98519.50;4362300;32;20141;-90
2022/11/22 12:15:28;;;;;;;29.20;13.80;;;;;;;8.63;59.65;98518.22;4343755;32;20523;-90
2022/11/22 12:18:05;;;;;;;28.10;13.55;;;;;;;8.74;59.66;98507.34;4376491;32;20111;-91
2022/11/22 12:21:01;;;;;;;31.40;15.88;;;;;;;8.73;59.66;98496.12;4357689;32;20490;-91
2022/11/22 12:24:00;;;;;;;28.42;14.30;;;;;;;8.68;59.66;98500.69;4361039;32;20178;-91
2022/11/22 12:26:25;;;;;;;31.60;15.23;;;;;;;8.76;59.67;98493.44;4364314;32;20168;-90